sensor_id;sensor_type;location;lat;lon;timestamp;temperature;humidity
6865;DHT22;3471;49.678;8.388;2023-04-19T00:00:27;12.40;99.90
6865;DHT22;3471;49.678;8.388;2023-04-19T00:02:52;12.40;99.90
6865;DHT22;3471;49.678;8.388;2023-04-19T00:05:18;12.40;99.90
6865;DHT22;3471;49.678;8.388;2023-04-19T00:07:46;12.40;99.90
6865;DHT22;3471;49.678;8.388;2023-04-19T00:10:12;12.30;99.90
6865;DHT22;3471;49.678;8.388;2023-04-19T00:12:37;12.30;99.90
6865;DHT22;3471;49.678;8.388;2023-04-19T00:15:03;12.30;99.90
6865;DHT22;3471;49.678;8.388;2023-04-19T00:17:29;12.30;99.90
6865;DHT22;3471;49.678;8.388;2023-04-19T00:19:55;12.30;99.90
6865;DHT22;3471;49.678;8.388;2023-04-19T00:22:21;12.30;99.90
6865;DHT22;3471;49.678;8.388;2023-04-19T00:24:46;12.30;99.90
6865;DHT22;3471;49.678;8.388;2023-04-19T00:27:12;12.20;99.90
6865;DHT22;3471;49.678;8.388;2023-04-19T00:29:37;12.30;99.90
6865;DHT22;3471;49.678;8.388;2023-04-19T00:32:03;12.20;99.90
6865;DHT22;3471;49.678;8.388;2023-04-19T00:34:30;12.30;99.90
6865;DHT22;3471;49.678;8.388;2023-04-19T00:36:56;12.30;99.90
6865;DHT22;3471;49.678;8.388;2023-04-19T00:39:22;12.20;99.90
6865;DHT22;3471;49.678;8.388;2023-04-19T00:41:47;12.20;99.90
6865;DHT22;3471;49.678;8.388;2023-04-19T00:44:13;12.30;99.90
6865;DHT22;3471;49.678;8.388;2023-04-19T00:46:39;12.30;99.90
6865;DHT22;3471;49.678;8.388;2023-04-19T00:49:05;12.30;99.90
6865;DHT22;3471;49.678;8.388;2023-04-19T00:51:31;12.20;99.90
6865;DHT22;3471;49.678;8.388;2023-04-19T00:53:57;12.20;99.90
6865;DHT22;3471;49.678;8.388;2023-04-19T00:56:24;12.20;99.90
6865;DHT22;3471;49.678;8.388;2023-04-19T00:58:51;12.20;99.90
6865;DHT22;3471;49.678;8.388;2023-04-19T01:01:17;12.30;99.90
6865;DHT22;3471;49.678;8.388;2023-04-19T01:03:44;12.20;99.90
6865;DHT22;3471;49.678;8.388;2023-04-19T01:06:10;12.20;99.90
6865;DHT22;3471;49.678;8.388;2023-04-19T01:08:36;12.20;99.90
6865;DHT22;3471;49.678;8.388;2023-04-19T01:11:01;12.20;99.90
6865;DHT22;3471;49.678;8.388;2023-04-19T01:13:27;12.20;99.90
6865;DHT22;3471;49.678;8.388;2023-04-19T01:15:54;12.20;99.90
6865;DHT22;3471;49.678;8.388;2023-04-19T01:18:20;12.20;99.90
6865;DHT22;3471;49.678;8.388;2023-04-19T01:20:48;12.20;99.90
6865;DHT22;3471;49.678;8.388;2023-04-19T01:23:13;12.20;99.90
6865;DHT22;3471;49.678;8.388;2023-04-19T01:25:39;12.20;99.90
6865;DHT22;3471;49.678;8.388;2023-04-19T01:28:04;12.20;99.90
6865;DHT22;3471;49.678;8.388;2023-04-19T01:30:30;12.20;99.90
6865;DHT22;3471;49.678;8.388;2023-04-19T01:32:56;12.20;99.90
6865;DHT22;3471;49.678;8.388;2023-04-19T01:35:22;12.20;99.90
6865;DHT22;3471;49.678;8.388;2023-04-19T01:37:48;12.20;99.90
6865;DHT22;3471;49.678;8.388;2023-04-19T01:40:15;12.30;99.90
6865;DHT22;3471;49.678;8.388;2023-04-19T01:42:40;12.30;99.90
6865;DHT22;3471;49.678;8.388;2023-04-19T01:45:06;12.30;99.90
6865;DHT22;3471;49.678;8.388;2023-04-19T01:47:32;12.30;99.90
6865;DHT22;3471;49.678;8.388;2023-04-19T01:49:57;12.30;99.90
6865;DHT22;3471;49.678;8.388;2023-04-19T01:52:23;12.30;99.90
6865;DHT22;3471;49.678;8.388;2023-04-19T01:54:48;12.30;99.90
6865;DHT22;3471;49.678;8.388;2023-04-19T01:57:14;12.30;99.90
6865;DHT22;3471;49.678;8.388;2023-04-19T01:59:40;12.30;99.90
6865;DHT22;3471;49.678;8.388;2023-04-19T02:02:06;12.30;99.90
6865;DHT22;3471;49.678;8.388;2023-04-19T02:04:33;12.30;99.90
6865;DHT22;3471;49.678;8.388;2023-04-19T02:06:59;12.30;99.90
6865;DHT22;3471;49.678;8.388;2023-04-19T02:09:24;12.30;99.90
6865;DHT22;3471;49.678;8.388;2023-04-19T02:11:50;12.30;99.90
6865;DHT22;3471;49.678;8.388;2023-04-19T02:14:16;12.30;99.90
6865;DHT22;3471;49.678;8.388;2023-04-19T02:16:42;12.40;99.90
6865;DHT22;3471;49.678;8.388;2023-04-19T02:19:07;12.40;99.90
6865;DHT22;3471;49.678;8.388;2023-04-19T02:21:33;12.30;99.90
6865;DHT22;3471;49.678;8.388;2023-04-19T02:23:59;12.30;99.90
6865;DHT22;3471;49.678;8.388;2023-04-19T02:26:25;12.20;99.90
6865;DHT22;3471;49.678;8.388;2023-04-19T02:28:51;12.30;99.90
6865;DHT22;3471;49.678;8.388;2023-04-19T02:31:17;12.30;99.90
6865;DHT22;3471;49.678;8.388;2023-04-19T02:33:43;12.30;99.90
6865;DHT22;3471;49.678;8.388;2023-04-19T02:36:08;12.30;99.90
6865;DHT22;3471;49.678;8.388;2023-04-19T02:38:34;12.30;99.90
6865;DHT22;3471;49.678;8.388;2023-04-19T02:40:59;12.30;99.90
6865;DHT22;3471;49.678;8.388;2023-04-19T02:43:28;12.30;99.90
6865;DHT22;3471;49.678;8.388;2023-04-19T02:45:54;12.30;99.90
6865;DHT22;3471;49.678;8.388;2023-04-19T02:48:20;12.30;99.90
6865;DHT22;3471;49.678;8.388;2023-04-19T02:50:46;12.20;99.90
6865;DHT22;3471;49.678;8.388;2023-04-19T02:53:11;12.20;99.90
6865;DHT22;3471;49.678;8.388;2023-04-19T02:55:37;12.20;99.90
6865;DHT22;3471;49.678;8.388;2023-04-19T02:58:03;12.20;99.90
6865;DHT22;3471;49.678;8.388;2023-04-19T03:00:28;12.10;99.90
6865;DHT22;3471;49.678;8.388;2023-04-19T03:02:55;12.10;99.90
6865;DHT22;3471;49.678;8.388;2023-04-19T03:05:22;12.10;99.90
6865;DHT22;3471;49.678;8.388;2023-04-19T03:07:47;12.10;99.90
6865;DHT22;3471;49.678;8.388;2023-04-19T03:10:13;12.10;99.90
6865;DHT22;3471;49.678;8.388;2023-04-19T03:12:39;12.10;99.90
6865;DHT22;3471;49.678;8.388;2023-04-19T03:15:05;12.10;99.90
6865;DHT22;3471;49.678;8.388;2023-04-19T03:17:31;12.10;99.90
6865;DHT22;3471;49.678;8.388;2023-04-19T03:19:56;12.10;99.90
6865;DHT22;3471;49.678;8.388;2023-04-19T03:22:22;12.10;99.90
6865;DHT22;3471;49.678;8.388;2023-04-19T03:24:48;12.10;99.90
6865;DHT22;3471;49.678;8.388;2023-04-19T03:27:13;12.00;99.90
6865;DHT22;3471;49.678;8.388;2023-04-19T03:29:39;12.00;99.90
6865;DHT22;3471;49.678;8.388;2023-04-19T03:32:06;12.00;99.90
6865;DHT22;3471;49.678;8.388;2023-04-19T03:34:32;12.00;99.90
6865;DHT22;3471;49.678;8.388;2023-04-19T03:36:58;12.00;99.90
6865;DHT22;3471;49.678;8.388;2023-04-19T03:39:23;12.00;99.90
6865;DHT22;3471;49.678;8.388;2023-04-19T03:41:49;12.00;99.90
6865;DHT22;3471;49.678;8.388;2023-04-19T03:44:15;12.00;99.90
6865;DHT22;3471;49.678;8.388;2023-04-19T03:46:40;11.90;99.90
6865;DHT22;3471;49.678;8.388;2023-04-19T03:49:06;11.90;99.90
6865;DHT22;3471;49.678;8.388;2023-04-19T03:51:32;11.90;99.90
6865;DHT22;3471;49.678;8.388;2023-04-19T03:53:57;11.90;99.90
6865;DHT22;3471;49.678;8.388;2023-04-19T03:56:23;11.90;99.90
6865;DHT22;3471;49.678;8.388;2023-04-19T03:58:51;11.90;99.90
6865;DHT22;3471;49.678;8.388;2023-04-19T04:01:21;11.90;99.90
6865;DHT22;3471;49.678;8.388;2023-04-19T04:03:48;11.90;99.90
6865;DHT22;3471;49.678;8.388;2023-04-19T04:06:14;11.90;99.90
6865;DHT22;3471;49.678;8.388;2023-04-19T04:08:40;11.90;99.90
6865;DHT22;3471;49.678;8.388;2023-04-19T04:11:05;11.90;99.90
6865;DHT22;3471;49.678;8.388;2023-04-19T04:13:31;11.90;99.90
6865;DHT22;3471;49.678;8.388;2023-04-19T04:15:56;11.90;99.90
6865;DHT22;3471;49.678;8.388;2023-04-19T04:18:22;11.90;99.90
6865;DHT22;3471;49.678;8.388;2023-04-19T04:20:47;11.90;99.90
6865;DHT22;3471;49.678;8.388;2023-04-19T04:23:13;11.90;99.90
6865;DHT22;3471;49.678;8.388;2023-04-19T04:25:39;11.90;99.90
6865;DHT22;3471;49.678;8.388;2023-04-19T04:28:05;11.90;99.90
6865;DHT22;3471;49.678;8.388;2023-04-19T04:30:31;11.90;99.90
6865;DHT22;3471;49.678;8.388;2023-04-19T04:32:58;11.90;99.90
6865;DHT22;3471;49.678;8.388;2023-04-19T04:35:24;11.90;99.90
6865;DHT22;3471;49.678;8.388;2023-04-19T04:37:50;11.90;99.90
6865;DHT22;3471;49.678;8.388;2023-04-19T04:40:18;11.90;99.90
6865;DHT22;3471;49.678;8.388;2023-04-19T04:42:44;11.90;99.90
6865;DHT22;3471;49.678;8.388;2023-04-19T04:45:10;11.90;99.90
6865;DHT22;3471;49.678;8.388;2023-04-19T04:47:36;12.00;99.90
6865;DHT22;3471;49.678;8.388;2023-04-19T04:50:02;11.90;99.90
6865;DHT22;3471;49.678;8.388;2023-04-19T04:52:28;12.00;99.90
6865;DHT22;3471;49.678;8.388;2023-04-19T04:54:54;12.00;99.90
6865;DHT22;3471;49.678;8.388;2023-04-19T04:57:20;12.10;99.90
6865;DHT22;3471;49.678;8.388;2023-04-19T04:59:45;12.10;99.90
6865;DHT22;3471;49.678;8.388;2023-04-19T05:02:13;12.10;99.90
6865;DHT22;3471;49.678;8.388;2023-04-19T05:04:39;12.10;99.90
6865;DHT22;3471;49.678;8.388;2023-04-19T05:07:05;12.20;99.90
6865;DHT22;3471;49.678;8.388;2023-04-19T05:09:30;12.20;99.90
6865;DHT22;3471;49.678;8.388;2023-04-19T05:11:56;12.20;99.90
6865;DHT22;3471;49.678;8.388;2023-04-19T05:14:22;12.20;99.90
6865;DHT22;3471;49.678;8.388;2023-04-19T05:16:47;12.20;99.90
6865;DHT22;3471;49.678;8.388;2023-04-19T05:19:13;12.20;99.90
6865;DHT22;3471;49.678;8.388;2023-04-19T05:21:38;12.20;99.90
6865;DHT22;3471;49.678;8.388;2023-04-19T05:24:04;12.20;99.90
6865;DHT22;3471;49.678;8.388;2023-04-19T05:26:30;12.20;99.90
6865;DHT22;3471;49.678;8.388;2023-04-19T05:28:56;12.20;99.90
6865;DHT22;3471;49.678;8.388;2023-04-19T05:31:22;12.30;99.90
6865;DHT22;3471;49.678;8.388;2023-04-19T05:33:47;12.30;99.90
6865;DHT22;3471;49.678;8.388;2023-04-19T05:36:13;12.30;99.90
6865;DHT22;3471;49.678;8.388;2023-04-19T05:38:39;12.30;99.90
6865;DHT22;3471;49.678;8.388;2023-04-19T05:41:04;12.40;99.90
6865;DHT22;3471;49.678;8.388;2023-04-19T05:43:30;12.40;99.90
6865;DHT22;3471;49.678;8.388;2023-04-19T05:45:56;12.40;99.90
6865;DHT22;3471;49.678;8.388;2023-04-19T05:48:22;12.40;99.90
6865;DHT22;3471;49.678;8.388;2023-04-19T05:50:47;12.40;99.90
6865;DHT22;3471;49.678;8.388;2023-04-19T05:53:13;12.50;99.90
6865;DHT22;3471;49.678;8.388;2023-04-19T05:55:38;12.40;99.90
6865;DHT22;3471;49.678;8.388;2023-04-19T05:58:04;12.50;99.90
6865;DHT22;3471;49.678;8.388;2023-04-19T06:00:29;12.50;99.90
6865;DHT22;3471;49.678;8.388;2023-04-19T06:02:55;12.60;99.90
6865;DHT22;3471;49.678;8.388;2023-04-19T06:05:20;12.60;99.90
6865;DHT22;3471;49.678;8.388;2023-04-19T06:07:46;12.70;99.90
6865;DHT22;3471;49.678;8.388;2023-04-19T06:10:13;12.70;99.90
6865;DHT22;3471;49.678;8.388;2023-04-19T06:12:39;12.70;99.90
6865;DHT22;3471;49.678;8.388;2023-04-19T06:15:05;12.70;99.90
6865;DHT22;3471;49.678;8.388;2023-04-19T06:17:30;12.80;99.90
6865;DHT22;3471;49.678;8.388;2023-04-19T06:19:56;12.90;99.90
6865;DHT22;3471;49.678;8.388;2023-04-19T06:22:22;12.90;99.90
6865;DHT22;3471;49.678;8.388;2023-04-19T06:24:47;12.90;99.90
6865;DHT22;3471;49.678;8.388;2023-04-19T06:27:14;13.00;99.90
6865;DHT22;3471;49.678;8.388;2023-04-19T06:29:41;13.10;99.90
6865;DHT22;3471;49.678;8.388;2023-04-19T06:32:07;13.20;99.90
6865;DHT22;3471;49.678;8.388;2023-04-19T06:34:33;13.20;99.90
6865;DHT22;3471;49.678;8.388;2023-04-19T06:36:58;13.30;99.90
6865;DHT22;3471;49.678;8.388;2023-04-19T06:39:24;13.40;99.90
6865;DHT22;3471;49.678;8.388;2023-04-19T06:41:51;13.40;99.90
6865;DHT22;3471;49.678;8.388;2023-04-19T06:44:17;13.50;99.90
6865;DHT22;3471;49.678;8.388;2023-04-19T06:46:42;13.50;99.90
6865;DHT22;3471;49.678;8.388;2023-04-19T06:49:08;13.60;99.90
6865;DHT22;3471;49.678;8.388;2023-04-19T06:51:33;13.60;99.90
6865;DHT22;3471;49.678;8.388;2023-04-19T06:53:59;13.70;99.90
6865;DHT22;3471;49.678;8.388;2023-04-19T06:56:42;13.90;99.90
6865;DHT22;3471;49.678;8.388;2023-04-19T06:59:17;14.10;99.90
6865;DHT22;3471;49.678;8.388;2023-04-19T07:01:43;14.30;99.90
6865;DHT22;3471;49.678;8.388;2023-04-19T07:04:09;14.50;99.90
6865;DHT22;3471;49.678;8.388;2023-04-19T07:06:36;14.60;99.90
6865;DHT22;3471;49.678;8.388;2023-04-19T07:09:04;14.70;99.90
6865;DHT22;3471;49.678;8.388;2023-04-19T07:11:30;14.90;99.90
6865;DHT22;3471;49.678;8.388;2023-04-19T07:13:57;15.00;99.90
6865;DHT22;3471;49.678;8.388;2023-04-19T07:16:23;15.00;99.90
6865;DHT22;3471;49.678;8.388;2023-04-19T07:18:48;15.10;99.90
6865;DHT22;3471;49.678;8.388;2023-04-19T07:21:14;15.20;99.90
6865;DHT22;3471;49.678;8.388;2023-04-19T07:23:40;15.30;99.90
6865;DHT22;3471;49.678;8.388;2023-04-19T07:26:06;15.40;99.90
6865;DHT22;3471;49.678;8.388;2023-04-19T07:28:32;15.40;99.90
6865;DHT22;3471;49.678;8.388;2023-04-19T07:30:58;15.40;99.90
6865;DHT22;3471;49.678;8.388;2023-04-19T07:33:26;15.40;99.90
6865;DHT22;3471;49.678;8.388;2023-04-19T07:35:53;15.30;99.90
6865;DHT22;3471;49.678;8.388;2023-04-19T07:38:18;15.10;99.90
6865;DHT22;3471;49.678;8.388;2023-04-19T07:40:44;15.00;99.90
6865;DHT22;3471;49.678;8.388;2023-04-19T07:43:10;14.90;99.90
6865;DHT22;3471;49.678;8.388;2023-04-19T07:45:36;14.80;99.90
6865;DHT22;3471;49.678;8.388;2023-04-19T07:48:02;14.70;99.90
6865;DHT22;3471;49.678;8.388;2023-04-19T07:50:27;14.50;99.90
6865;DHT22;3471;49.678;8.388;2023-04-19T07:52:53;14.40;99.90
6865;DHT22;3471;49.678;8.388;2023-04-19T07:55:19;14.40;99.90
6865;DHT22;3471;49.678;8.388;2023-04-19T07:57:45;14.30;99.90
6865;DHT22;3471;49.678;8.388;2023-04-19T08:00:16;14.30;99.90
6865;DHT22;3471;49.678;8.388;2023-04-19T08:02:46;14.30;99.90
6865;DHT22;3471;49.678;8.388;2023-04-19T08:05:13;14.30;99.90
6865;DHT22;3471;49.678;8.388;2023-04-19T08:07:41;14.30;99.90
6865;DHT22;3471;49.678;8.388;2023-04-19T08:10:07;14.40;99.90
6865;DHT22;3471;49.678;8.388;2023-04-19T08:12:32;14.40;99.90
6865;DHT22;3471;49.678;8.388;2023-04-19T08:14:58;14.40;99.90
6865;DHT22;3471;49.678;8.388;2023-04-19T08:17:24;14.40;99.90
6865;DHT22;3471;49.678;8.388;2023-04-19T08:19:49;14.40;99.90
6865;DHT22;3471;49.678;8.388;2023-04-19T08:22:16;14.40;99.90
6865;DHT22;3471;49.678;8.388;2023-04-19T08:24:43;14.40;99.90
6865;DHT22;3471;49.678;8.388;2023-04-19T08:27:09;14.50;99.90
6865;DHT22;3471;49.678;8.388;2023-04-19T08:29:35;14.60;99.90
6865;DHT22;3471;49.678;8.388;2023-04-19T08:32:01;14.50;99.90
6865;DHT22;3471;49.678;8.388;2023-04-19T08:34:27;14.60;99.90
6865;DHT22;3471;49.678;8.388;2023-04-19T08:36:53;14.70;99.90
6865;DHT22;3471;49.678;8.388;2023-04-19T08:39:18;14.70;99.90
6865;DHT22;3471;49.678;8.388;2023-04-19T08:41:44;14.70;99.90
6865;DHT22;3471;49.678;8.388;2023-04-19T08:44:10;14.70;99.90
6865;DHT22;3471;49.678;8.388;2023-04-19T08:46:36;14.80;99.90
6865;DHT22;3471;49.678;8.388;2023-04-19T08:49:04;14.80;99.90
6865;DHT22;3471;49.678;8.388;2023-04-19T08:51:31;14.80;99.90
6865;DHT22;3471;49.678;8.388;2023-04-19T08:53:57;14.80;99.90
6865;DHT22;3471;49.678;8.388;2023-04-19T08:56:24;14.80;99.90
6865;DHT22;3471;49.678;8.388;2023-04-19T08:58:49;14.90;99.90
6865;DHT22;3471;49.678;8.388;2023-04-19T09:01:15;14.90;99.90
6865;DHT22;3471;49.678;8.388;2023-04-19T09:03:44;14.90;99.90
6865;DHT22;3471;49.678;8.388;2023-04-19T09:06:10;14.90;99.90
6865;DHT22;3471;49.678;8.388;2023-04-19T09:08:37;15.00;99.90
6865;DHT22;3471;49.678;8.388;2023-04-19T09:11:03;14.90;99.90
6865;DHT22;3471;49.678;8.388;2023-04-19T09:13:30;15.00;99.90
6865;DHT22;3471;49.678;8.388;2023-04-19T09:15:56;15.00;99.90
6865;DHT22;3471;49.678;8.388;2023-04-19T09:18:23;15.00;99.90
6865;DHT22;3471;49.678;8.388;2023-04-19T09:20:49;15.00;99.90
6865;DHT22;3471;49.678;8.388;2023-04-19T09:23:17;15.10;99.90
6865;DHT22;3471;49.678;8.388;2023-04-19T09:25:56;15.10;99.90
6865;DHT22;3471;49.678;8.388;2023-04-19T09:28:22;15.20;99.90
6865;DHT22;3471;49.678;8.388;2023-04-19T09:30:49;15.20;99.90
6865;DHT22;3471;49.678;8.388;2023-04-19T09:33:47;15.20;99.90
6865;DHT22;3471;49.678;8.388;2023-04-19T09:36:29;15.10;99.90
6865;DHT22;3471;49.678;8.388;2023-04-19T09:38:56;15.10;99.90
6865;DHT22;3471;49.678;8.388;2023-04-19T09:41:22;15.10;99.90
6865;DHT22;3471;49.678;8.388;2023-04-19T09:43:48;15.10;99.90
6865;DHT22;3471;49.678;8.388;2023-04-19T09:46:29;15.10;99.90
6865;DHT22;3471;49.678;8.388;2023-04-19T09:54:16;15.30;99.90
6865;DHT22;3471;49.678;8.388;2023-04-19T09:56:42;15.40;99.90
6865;DHT22;3471;49.678;8.388;2023-04-19T09:59:09;15.50;99.90
6865;DHT22;3471;49.678;8.388;2023-04-19T10:01:38;15.60;99.90
6865;DHT22;3471;49.678;8.388;2023-04-19T10:04:04;15.70;99.90
6865;DHT22;3471;49.678;8.388;2023-04-19T10:06:31;15.90;99.90
6865;DHT22;3471;49.678;8.388;2023-04-19T10:08:59;16.00;99.90
6865;DHT22;3471;49.678;8.388;2023-04-19T10:11:26;16.10;99.90
6865;DHT22;3471;49.678;8.388;2023-04-19T10:13:59;16.30;99.90
6865;DHT22;3471;49.678;8.388;2023-04-19T10:16:25;16.50;99.90
6865;DHT22;3471;49.678;8.388;2023-04-19T10:18:52;16.50;99.90
6865;DHT22;3471;49.678;8.388;2023-04-19T10:21:18;16.60;99.90
6865;DHT22;3471;49.678;8.388;2023-04-19T10:23:45;16.70;99.90
6865;DHT22;3471;49.678;8.388;2023-04-19T10:26:11;16.80;99.90
6865;DHT22;3471;49.678;8.388;2023-04-19T10:28:37;16.90;99.90
6865;DHT22;3471;49.678;8.388;2023-04-19T10:31:03;17.00;99.90
6865;DHT22;3471;49.678;8.388;2023-04-19T10:33:34;17.10;99.90
6865;DHT22;3471;49.678;8.388;2023-04-19T10:36:00;17.10;99.90
6865;DHT22;3471;49.678;8.388;2023-04-19T10:41:10;17.20;99.90
6865;DHT22;3471;49.678;8.388;2023-04-19T10:48:55;17.30;99.90
6865;DHT22;3471;49.678;8.388;2023-04-19T10:54:04;17.40;99.90
6865;DHT22;3471;49.678;8.388;2023-04-19T11:04:01;17.80;99.90
6865;DHT22;3471;49.678;8.388;2023-04-19T11:06:27;17.90;99.90
6865;DHT22;3471;49.678;8.388;2023-04-19T11:08:53;18.00;99.90
6865;DHT22;3471;49.678;8.388;2023-04-19T11:11:19;18.10;99.90
6865;DHT22;3471;49.678;8.388;2023-04-19T11:13:49;18.10;99.90
6865;DHT22;3471;49.678;8.388;2023-04-19T11:16:14;18.20;99.90
6865;DHT22;3471;49.678;8.388;2023-04-19T11:18:40;18.20;99.90
6865;DHT22;3471;49.678;8.388;2023-04-19T11:21:06;18.30;99.90
6865;DHT22;3471;49.678;8.388;2023-04-19T11:23:31;18.30;99.90
6865;DHT22;3471;49.678;8.388;2023-04-19T11:25:57;18.30;99.90
6865;DHT22;3471;49.678;8.388;2023-04-19T11:28:23;18.40;99.90
6865;DHT22;3471;49.678;8.388;2023-04-19T11:30:49;18.50;99.90
6865;DHT22;3471;49.678;8.388;2023-04-19T11:33:18;18.60;99.90
6865;DHT22;3471;49.678;8.388;2023-04-19T11:35:49;18.70;99.90
6865;DHT22;3471;49.678;8.388;2023-04-19T11:38:15;18.80;99.90
6865;DHT22;3471;49.678;8.388;2023-04-19T11:40:41;18.90;99.90
6865;DHT22;3471;49.678;8.388;2023-04-19T11:43:06;19.00;99.90
6865;DHT22;3471;49.678;8.388;2023-04-19T11:45:34;19.20;99.90
6865;DHT22;3471;49.678;8.388;2023-04-19T11:48:01;19.30;99.90
6865;DHT22;3471;49.678;8.388;2023-04-19T11:50:40;19.30;99.90
6865;DHT22;3471;49.678;8.388;2023-04-19T11:53:21;19.40;99.90
6865;DHT22;3471;49.678;8.388;2023-04-19T11:56:03;19.40;99.90
6865;DHT22;3471;49.678;8.388;2023-04-19T11:58:45;19.60;99.90
6865;DHT22;3471;49.678;8.388;2023-04-19T12:01:19;19.70;99.90
6865;DHT22;3471;49.678;8.388;2023-04-19T12:03:49;19.80;99.90
6865;DHT22;3471;49.678;8.388;2023-04-19T12:06:22;19.90;99.90
6865;DHT22;3471;49.678;8.388;2023-04-19T12:08:49;20.10;99.10
6865;DHT22;3471;49.678;8.388;2023-04-19T12:11:17;20.40;99.40
6865;DHT22;3471;49.678;8.388;2023-04-19T12:13:43;20.60;99.90
6865;DHT22;3471;49.678;8.388;2023-04-19T12:16:09;20.90;99.90
6865;DHT22;3471;49.678;8.388;2023-04-19T12:18:48;21.10;99.40
6865;DHT22;3471;49.678;8.388;2023-04-19T12:21:28;21.20;98.00
6865;DHT22;3471;49.678;8.388;2023-04-19T12:24:00;21.30;98.20
6865;DHT22;3471;49.678;8.388;2023-04-19T12:26:27;21.60;98.70
6865;DHT22;3471;49.678;8.388;2023-04-19T12:28:53;21.70;96.60
6865;DHT22;3471;49.678;8.388;2023-04-19T12:31:19;21.70;95.80
6865;DHT22;3471;49.678;8.388;2023-04-19T12:33:45;21.80;97.60
6865;DHT22;3471;49.678;8.388;2023-04-19T12:36:11;22.00;97.40
6865;DHT22;3471;49.678;8.388;2023-04-19T12:38:36;22.30;95.80
6865;DHT22;3471;49.678;8.388;2023-04-19T12:41:02;22.60;93.40
6865;DHT22;3471;49.678;8.388;2023-04-19T12:43:27;22.80;95.00
6865;DHT22;3471;49.678;8.388;2023-04-19T12:45:54;22.90;92.80
6865;DHT22;3471;49.678;8.388;2023-04-19T12:48:20;22.80;91.60
6865;DHT22;3471;49.678;8.388;2023-04-19T12:50:46;22.60;93.20
6865;DHT22;3471;49.678;8.388;2023-04-19T12:53:11;22.50;93.40
6865;DHT22;3471;49.678;8.388;2023-04-19T12:55:37;22.50;92.60
6865;DHT22;3471;49.678;8.388;2023-04-19T12:58:02;22.40;90.90
6865;DHT22;3471;49.678;8.388;2023-04-19T13:00:28;22.50;91.20
6865;DHT22;3471;49.678;8.388;2023-04-19T13:02:54;22.60;90.40
6865;DHT22;3471;49.678;8.388;2023-04-19T13:05:20;22.80;91.30
6865;DHT22;3471;49.678;8.388;2023-04-19T13:07:46;23.10;90.20
6865;DHT22;3471;49.678;8.388;2023-04-19T13:10:11;23.40;88.50
6865;DHT22;3471;49.678;8.388;2023-04-19T13:12:37;23.50;89.60
6865;DHT22;3471;49.678;8.388;2023-04-19T13:15:03;23.70;87.50
6865;DHT22;3471;49.678;8.388;2023-04-19T13:17:29;23.70;90.30
6865;DHT22;3471;49.678;8.388;2023-04-19T13:19:55;23.80;85.50
6865;DHT22;3471;49.678;8.388;2023-04-19T13:22:21;23.90;84.60
6865;DHT22;3471;49.678;8.388;2023-04-19T13:24:46;24.00;87.70
6865;DHT22;3471;49.678;8.388;2023-04-19T13:27:12;24.20;84.30
6865;DHT22;3471;49.678;8.388;2023-04-19T13:29:38;24.40;83.70
6865;DHT22;3471;49.678;8.388;2023-04-19T13:32:03;24.50;77.90
6865;DHT22;3471;49.678;8.388;2023-04-19T13:34:32;24.60;76.20
6865;DHT22;3471;49.678;8.388;2023-04-19T13:36:57;24.70;73.60
6865;DHT22;3471;49.678;8.388;2023-04-19T13:39:24;24.90;73.00
6865;DHT22;3471;49.678;8.388;2023-04-19T13:41:49;25.00;70.00
6865;DHT22;3471;49.678;8.388;2023-04-19T13:44:15;25.20;68.70
6865;DHT22;3471;49.678;8.388;2023-04-19T13:46:40;25.30;73.90
6865;DHT22;3471;49.678;8.388;2023-04-19T13:49:06;25.50;64.40
6865;DHT22;3471;49.678;8.388;2023-04-19T13:51:32;25.30;65.70
6865;DHT22;3471;49.678;8.388;2023-04-19T13:53:57;25.00;65.50
6865;DHT22;3471;49.678;8.388;2023-04-19T13:56:23;25.00;63.80
6865;DHT22;3471;49.678;8.388;2023-04-19T13:58:48;25.00;66.30
6865;DHT22;3471;49.678;8.388;2023-04-19T14:01:14;25.10;67.70
6865;DHT22;3471;49.678;8.388;2023-04-19T14:03:39;25.20;70.00
6865;DHT22;3471;49.678;8.388;2023-04-19T14:06:05;25.50;60.40
6865;DHT22;3471;49.678;8.388;2023-04-19T14:08:31;25.70;66.50
6865;DHT22;3471;49.678;8.388;2023-04-19T14:10:56;25.90;64.40
6865;DHT22;3471;49.678;8.388;2023-04-19T14:13:22;26.10;66.80
6865;DHT22;3471;49.678;8.388;2023-04-19T14:15:47;26.40;59.20
6865;DHT22;3471;49.678;8.388;2023-04-19T14:18:13;26.70;57.40
6865;DHT22;3471;49.678;8.388;2023-04-19T14:20:39;26.90;63.20
6865;DHT22;3471;49.678;8.388;2023-04-19T14:23:04;27.00;60.00
6865;DHT22;3471;49.678;8.388;2023-04-19T14:25:30;27.10;62.60
6865;DHT22;3471;49.678;8.388;2023-04-19T14:27:57;27.20;57.90
6865;DHT22;3471;49.678;8.388;2023-04-19T14:30:23;27.20;53.50
6865;DHT22;3471;49.678;8.388;2023-04-19T14:32:50;27.10;61.80
6865;DHT22;3471;49.678;8.388;2023-04-19T14:35:16;27.10;59.80
6865;DHT22;3471;49.678;8.388;2023-04-19T14:37:41;27.10;54.50
6865;DHT22;3471;49.678;8.388;2023-04-19T14:40:07;27.20;59.70
6865;DHT22;3471;49.678;8.388;2023-04-19T14:42:33;27.30;57.10
6865;DHT22;3471;49.678;8.388;2023-04-19T14:44:59;27.30;61.20
6865;DHT22;3471;49.678;8.388;2023-04-19T14:47:24;27.40;57.20
6865;DHT22;3471;49.678;8.388;2023-04-19T14:49:50;27.50;58.00
6865;DHT22;3471;49.678;8.388;2023-04-19T14:52:16;27.60;55.20
6865;DHT22;3471;49.678;8.388;2023-04-19T14:54:41;27.70;60.00
6865;DHT22;3471;49.678;8.388;2023-04-19T14:57:07;27.90;56.50
6865;DHT22;3471;49.678;8.388;2023-04-19T14:59:33;27.90;57.20
6865;DHT22;3471;49.678;8.388;2023-04-19T15:01:59;27.80;53.40
6865;DHT22;3471;49.678;8.388;2023-04-19T15:04:25;27.50;55.70
6865;DHT22;3471;49.678;8.388;2023-04-19T15:06:50;27.50;56.00
6865;DHT22;3471;49.678;8.388;2023-04-19T15:09:16;27.30;51.60
6865;DHT22;3471;49.678;8.388;2023-04-19T15:11:41;27.20;57.20
6865;DHT22;3471;49.678;8.388;2023-04-19T15:14:07;27.10;53.20
6865;DHT22;3471;49.678;8.388;2023-04-19T15:16:32;27.20;54.60
6865;DHT22;3471;49.678;8.388;2023-04-19T15:18:58;27.10;52.50
6865;DHT22;3471;49.678;8.388;2023-04-19T15:21:23;27.00;52.30
6865;DHT22;3471;49.678;8.388;2023-04-19T15:23:49;26.90;51.50
6865;DHT22;3471;49.678;8.388;2023-04-19T15:26:14;26.80;55.20
6865;DHT22;3471;49.678;8.388;2023-04-19T15:28:40;26.70;51.30
6865;DHT22;3471;49.678;8.388;2023-04-19T15:31:07;26.70;55.90
6865;DHT22;3471;49.678;8.388;2023-04-19T15:33:34;26.80;52.80
6865;DHT22;3471;49.678;8.388;2023-04-19T15:36:00;26.70;53.70
6865;DHT22;3471;49.678;8.388;2023-04-19T15:38:28;26.60;50.70
6865;DHT22;3471;49.678;8.388;2023-04-19T15:40:55;26.30;49.40
6865;DHT22;3471;49.678;8.388;2023-04-19T15:43:22;25.80;50.70
6865;DHT22;3471;49.678;8.388;2023-04-19T15:45:47;25.40;51.20
6865;DHT22;3471;49.678;8.388;2023-04-19T15:48:13;25.20;54.00
6865;DHT22;3471;49.678;8.388;2023-04-19T15:50:39;25.10;59.60
6865;DHT22;3471;49.678;8.388;2023-04-19T15:53:05;24.90;50.70
6865;DHT22;3471;49.678;8.388;2023-04-19T15:55:31;24.80;55.50
6865;DHT22;3471;49.678;8.388;2023-04-19T15:57:58;24.30;58.10
6865;DHT22;3471;49.678;8.388;2023-04-19T16:00:25;24.30;54.70
6865;DHT22;3471;49.678;8.388;2023-04-19T16:02:51;24.30;50.40
6865;DHT22;3471;49.678;8.388;2023-04-19T16:05:17;24.30;53.70
6865;DHT22;3471;49.678;8.388;2023-04-19T16:07:43;24.20;51.30
6865;DHT22;3471;49.678;8.388;2023-04-19T16:10:09;24.00;50.80
6865;DHT22;3471;49.678;8.388;2023-04-19T16:12:35;23.70;55.70
6865;DHT22;3471;49.678;8.388;2023-04-19T16:15:01;23.40;52.80
6865;DHT22;3471;49.678;8.388;2023-04-19T16:17:26;23.20;52.50
6865;DHT22;3471;49.678;8.388;2023-04-19T16:19:52;22.90;54.40